Time;durP1;ratioP1;P1;durP2;ratioP2;P2;SDS_P1;SDS_P2;PMS_P1;PMS_P2;Temp;Humidity;BMP_temperature;BMP_pressure;BME280_temperature;BME280_humidity;BME280_pressure;Samples;Min_cycle;Max_cycle;Signal;HPM_P1;HPM_P2
2023/03/04 00:01:23;;;;;;;13.65;9.32;;;;;;;6.41;68.31;94983.56;5105355;28;20028;-76
2023/03/04 00:03:48;;;;;;;14.18;9.25;;;;;;;6.41;68.57;94992.53;5105338;28;20032;-75
2023/03/04 00:06:13;;;;;;;15.70;10.07;;;;;;;6.35;68.30;94988.72;5104413;28;20392;-75
2023/03/04 00:08:39;;;;;;;16.98;10.60;;;;;;;6.28;68.91;94984.13;5103480;28;20035;-75
2023/03/04 00:11:04;;;;;;;13.82;9.45;;;;;;;6.16;69.03;94986.59;5105988;28;20150;-75
2023/03/04 00:13:30;;;;;;;16.30;10.45;;;;;;;6.12;69.06;94984.66;5103465;28;20518;-75
2023/03/04 00:15:55;;;;;;;16.63;9.75;;;;;;;6.12;69.23;94987.41;5087074;28;20080;-76
2023/03/04 00:18:21;;;;;;;15.60;9.70;;;;;;;6.10;69.32;94978.84;5103476;28;20046;-76
2023/03/04 00:20:46;;;;;;;14.30;10.02;;;;;;;6.11;69.15;94982.34;5103998;28;20087;-77
2023/03/04 00:23:12;;;;;;;15.25;10.00;;;;;;;6.15;68.83;94974.13;5103835;28;20092;-76
2023/03/04 00:25:37;;;;;;;16.35;10.25;;;;;;;6.17;68.91;94979.97;5086161;28;20490;-76
2023/03/04 00:28:03;;;;;;;16.75;11.48;;;;;;;6.17;68.92;94980.72;5105531;28;20027;-76
2023/03/04 00:30:28;;;;;;;15.50;10.48;;;;;;;6.10;69.27;94970.66;5103037;28;20023;-76
2023/03/04 00:32:54;;;;;;;14.75;10.40;;;;;;;6.10;69.09;94967.94;5086810;28;20116;-75
2023/03/04 00:35:19;;;;;;;16.65;10.20;;;;;;;6.15;69.09;94964.00;5106828;28;20043;-76
2023/03/04 00:37:44;;;;;;;13.98;9.40;;;;;;;6.17;68.77;94961.63;5104702;28;20365;-76
2023/03/04 00:40:10;;;;;;;17.83;11.27;;;;;;;6.22;68.76;94960.41;5103194;28;20440;-75
2023/03/04 00:42:36;;;;;;;15.60;10.35;;;;;;;6.25;68.42;94962.31;5104901;28;20492;-75
2023/03/04 00:45:03;;;;;;;17.92;11.80;;;;;;;6.25;68.25;94965.84;5104989;28;20043;-75
2023/03/04 00:47:28;;;;;;;16.70;11.38;;;;;;;6.29;67.85;94961.09;5104648;28;20035;-75
2023/03/04 00:49:54;;;;;;;16.80;10.20;;;;;;;6.26;67.96;94952.97;5105391;28;20088;-75
2023/03/04 00:52:19;;;;;;;17.95;10.13;;;;;;;6.28;67.54;94966.97;5104563;28;20039;-76
2023/03/04 00:54:44;;;;;;;19.45;11.25;;;;;;;6.11;67.78;94958.56;5103570;28;20035;-76
2023/03/04 00:57:10;;;;;;;15.65;10.68;;;;;;;6.07;68.04;94962.50;5103266;28;20562;-75
2023/03/04 00:59:35;;;;;;;15.15;9.68;;;;;;;6.01;68.21;94966.88;5103420;28;20114;-76
2023/03/04 01:02:01;;;;;;;15.82;9.27;;;;;;;5.91;68.15;94959.53;5103415;28;20015;-75
2023/03/04 01:04:26;;;;;;;15.55;10.30;;;;;;;5.84;68.56;94952.97;5103142;28;20118;-75
2023/03/04 01:06:51;;;;;;;15.43;9.90;;;;;;;5.84;68.27;94954.94;5103429;28;20552;-75
2023/03/04 01:09:17;;;;;;;19.20;12.68;;;;;;;5.88;68.31;94960.34;5102863;28;20036;-74
2023/03/04 01:11:42;;;;;;;16.08;10.77;;;;;;;5.88;68.31;94957.63;5104699;28;20035;-75
2023/03/04 01:14:08;;;;;;;14.45;9.90;;;;;;;5.86;68.44;94961.53;5104408;28;20028;-76
2023/03/04 01:16:33;;;;;;;15.75;10.20;;;;;;;5.82;68.46;94958.06;5104224;28;20432;-75
2023/03/04 01:18:59;;;;;;;16.10;9.43;;;;;;;5.86;68.47;94961.53;5108389;28;20026;-76
2023/03/04 01:21:25;;;;;;;15.85;9.85;;;;;;;5.91;68.46;94963.09;5109028;28;20082;-76
2023/03/04 01:23:50;;;;;;;14.57;10.00;;;;;;;6.03;68.03;94943.47;5108696;28;20449;-76
2023/03/04 01:26:15;;;;;;;15.00;9.60;;;;;;;6.13;67.47;94945.28;5107021;28;20028;-76
2023/03/04 01:28:41;;;;;;;13.18;9.77;;;;;;;6.10;67.57;94943.38;5108671;28;20024;-75
2023/03/04 01:31:06;;;;;;;14.95;9.43;;;;;;;6.16;67.42;94945.66;5106968;28;20108;-77
2023/03/04 01:33:32;;;;;;;13.43;9.45;;;;;;;6.17;67.06;94941.75;5107349;28;20073;-76
2023/03/04 01:35:57;;;;;;;14.63;9.55;;;;;;;6.23;66.92;94943.59;5106294;28;20430;-74
2023/03/04 01:38:23;;;;;;;15.55;10.40;;;;;;;6.12;67.68;94941.00;5108904;28;20114;-74
2023/03/04 01:40:50;;;;;;;16.30;10.75;;;;;;;6.08;67.57;94940.28;5107441;28;20425;-76
2023/03/04 01:43:23;;;;;;;17.80;10.20;;;;;;;6.03;67.63;94935.28;5107211;28;20035;-76
2023/03/04 01:45:50;;;;;;;15.18;10.13;;;;;;;5.95;67.96;94922.09;5107031;28;20102;-75
2023/03/04 01:48:18;;;;;;;15.25;9.77;;;;;;;5.89;68.23;94920.97;5106716;28;20060;-76
2023/03/04 01:50:43;;;;;;;16.17;10.48;;;;;;;5.83;68.43;94918.69;5106720;28;20102;-74
2023/03/04 01:53:17;;;;;;;17.73;10.80;;;;;;;5.85;68.56;94919.06;5089455;28;20102;-76
2023/03/04 01:55:42;;;;;;;;;;;;;;;5.85;68.21;94919.06;5107373;28;20020;-76
2023/03/04 01:58:09;;;;;;;15.85;10.80;;;;;;;5.77;68.49;94919.53;5106707;28;20011;-76
2023/03/04 02:00:36;;;;;;;14.93;10.82;;;;;;;5.73;68.83;94921.53;5108067;28;20028;-75
2023/03/04 02:03:06;;;;;;;15.40;9.73;;;;;;;5.69;69.10;94920.81;5106574;28;20084;-76
2023/03/04 02:05:32;;;;;;;16.30;11.15;;;;;;;5.79;68.65;94919.91;5107690;28;20031;-75
2023/03/04 02:07:58;;;;;;;17.35;10.45;;;;;;;5.79;68.51;94907.06;5106615;28;20035;-76
2023/03/04 02:10:24;;;;;;;14.68;9.18;;;;;;;5.86;68.01;94915.16;5106337;28;20098;-75
2023/03/04 02:12:50;;;;;;;13.85;9.60;;;;;;;5.91;67.94;94913.16;5106766;28;20111;-75
2023/03/04 02:15:16;;;;;;;14.90;10.05;;;;;;;5.91;67.71;94913.16;5106094;28;20081;-76
2023/03/04 02:17:41;;;;;;;13.32;9.52;;;;;;;5.88;68.04;94914.75;5106766;28;20020;-75
2023/03/04 02:20:25;;;;;;;15.55;8.80;;;;;;;5.93;67.81;94914.34;5089206;28;20457;-76
2023/03/04 02:22:59;;;;;;;13.07;9.18;;;;;;;6.02;67.80;94919.28;5105659;28;20028;-75
2023/03/04 02:25:32;;;;;;;14.48;9.85;;;;;;;6.07;67.15;94914.16;5089473;28;20040;-76
2023/03/04 02:27:57;;;;;;;13.23;8.68;;;;;;;6.06;67.04;94907.16;5104639;28;20038;-75
2023/03/04 02:30:24;;;;;;;15.18;9.98;;;;;;;6.08;67.20;94914.97;5106141;28;20085;-75
2023/03/04 02:32:50;;;;;;;15.40;9.30;;;;;;;6.17;66.88;94912.50;5105855;28;20031;-75
2023/03/04 02:35:16;;;;;;;14.05;9.65;;;;;;;6.22;66.69;94917.50;5106071;28;20051;-75
2023/03/04 02:37:42;;;;;;;14.60;9.90;;;;;;;6.23;66.48;94915.53;5107832;28;20497;-76
2023/03/04 02:40:29;;;;;;;16.33;11.45;;;;;;;6.27;66.52;94910.81;5105560;28;20050;-76
2023/03/04 02:42:54;;;;;;;12.43;8.98;;;;;;;6.31;66.46;94906.88;5105673;28;20028;-76
2023/03/04 02:45:34;;;;;;;15.13;9.10;;;;;;;6.32;66.12;94896.72;5105526;28;20035;-75
2023/03/04 02:48:00;;;;;;;15.60;9.85;;;;;;;6.32;66.03;94902.19;5109154;28;20023;-75
2023/03/04 02:50:27;;;;;;;14.70;9.05;;;;;;;6.31;66.13;94900.63;5106134;28;20024;-75
2023/03/04 02:52:52;;;;;;;13.50;9.38;;;;;;;6.29;66.33;94898.28;5105434;28;20034;-76
2023/03/04 02:55:18;;;;;;;14.57;9.25;;;;;;;6.30;66.29;94897.09;5107173;28;20473;-75
2023/03/04 02:57:43;;;;;;;17.38;10.45;;;;;;;6.30;66.26;94894.38;5105377;28;20031;-75
2023/03/04 03:00:09;;;;;;;17.67;11.32;;;;;;;6.33;66.08;94892.78;5105718;28;20080;-75
2023/03/04 03:02:35;;;;;;;18.90;11.88;;;;;;;6.30;66.23;94890.88;5106456;28;20040;-75
2023/03/04 03:05:00;;;;;;;19.55;10.88;;;;;;;6.34;66.33;94892.38;5105855;28;20124;-75
2023/03/04 03:07:26;;;;;;;15.45;10.18;;;;;;;6.36;66.11;94897.41;5088335;28;20482;-76
2023/03/04 03:09:51;;;;;;;13.88;9.98;;;;;;;6.35;65.86;94899.38;5107045;28;20063;-74
2023/03/04 03:12:16;;;;;;;15.38;10.65;;;;;;;6.37;66.06;94904.44;5107028;28;20036;-75
2023/03/04 03:14:42;;;;;;;19.35;11.43;;;;;;;6.42;65.74;94901.25;5106495;28;20015;-75
2023/03/04 03:17:07;;;;;;;14.13;9.80;;;;;;;6.33;66.05;94904.50;5105442;28;20468;-74
2023/03/04 03:19:32;;;;;;;14.05;9.68;;;;;;;6.37;66.06;94904.44;5106419;28;20023;-75
2023/03/04 03:21:58;;;;;;;15.27;9.95;;;;;;;6.39;65.97;94904.81;5105604;28;20023;-75
2023/03/04 03:24:23;;;;;;;16.88;10.88;;;;;;;6.40;65.59;94900.88;5104428;28;20052;-75
2023/03/04 03:26:49;;;;;;;16.90;10.38;;;;;;;6.42;65.68;94898.50;5088701;28;20356;-75
2023/03/04 03:29:14;;;;;;;19.15;11.07;;;;;;;6.44;65.31;94898.88;5088067;28;20160;-76
2023/03/04 03:31:39;;;;;;;17.42;11.00;;;;;;;6.44;65.41;94893.44;5106505;28;20111;-76
2023/03/04 03:34:05;;;;;;;15.90;10.57;;;;;;;6.42;65.26;94897.72;5106205;28;20055;-76
2023/03/04 03:36:30;;;;;;;16.52;11.30;;;;;;;6.42;65.17;94893.03;5087463;28;20028;-76
2023/03/04 03:38:56;;;;;;;17.92;11.40;;;;;;;6.44;65.16;94901.63;5087918;28;20088;-76
2023/03/04 03:41:21;;;;;;;18.30;11.88;;;;;;;6.44;65.27;94896.16;5086920;28;20039;-75
2023/03/04 03:43:47;;;;;;;15.90;10.95;;;;;;;6.35;65.37;94890.41;5104957;28;20027;-75
2023/03/04 03:46:12;;;;;;;17.80;11.43;;;;;;;6.34;65.51;94903.31;5104312;28;20024;-75
2023/03/04 03:48:37;;;;;;;16.85;11.65;;;;;;;6.30;65.58;94893.59;5104868;28;20027;-75
2023/03/04 03:51:03;;;;;;;16.13;11.07;;;;;;;6.31;65.53;94889.72;5104797;28;20026;-76
2023/03/04 03:53:28;;;;;;;19.13;11.65;;;;;;;6.28;65.26;94885.84;5106260;28;20031;-76
2023/03/04 03:55:54;;;;;;;17.00;10.98;;;;;;;6.23;65.33;94896.44;5106201;28;20397;-75
2023/03/04 03:58:19;;;;;;;16.63;11.27;;;;;;;6.20;65.30;94891.81;5104171;28;20026;-75
2023/03/04 04:00:44;;;;;;;17.25;11.30;;;;;;;6.17;66.00;94887.91;5106129;28;20016;-75
2023/03/04 04:03:13;;;;;;;16.85;11.00;;;;;;;6.14;65.65;94883.28;5104037;28;20470;-74
2023/03/04 04:05:39;;;;;;;17.83;11.45;;;;;;;6.11;65.79;94879.41;5104981;28;20032;-76
2023/03/04 04:08:04;;;;;;;17.65;11.38;;;;;;;6.11;65.98;94873.94;5105582;28;20024;-76
2023/03/04 04:10:29;;;;;;;18.25;12.10;;;;;;;6.10;66.04;94883.34;5105232;27;20420;-76
2023/03/04 04:12:55;;;;;;;16.83;11.00;;;;;;;6.06;65.84;94873.63;5105890;28;20031;-76
2023/03/04 04:15:20;;;;;;;18.70;12.10;;;;;;;6.04;65.95;94878.75;5103675;28;20061;-76
2023/03/04 04:17:46;;;;;;;16.50;11.05;;;;;;;6.00;65.63;94872.53;5105826;28;20050;-76
2023/03/04 04:20:11;;;;;;;19.70;11.63;;;;;;;5.97;65.84;94868.69;5105200;28;20039;-76
2023/03/04 04:22:38;;;;;;;19.15;12.02;;;;;;;5.93;65.74;94873.41;5104131;28;20027;-76
2023/03/04 04:25:04;;;;;;;16.73;11.73;;;;;;;5.80;65.84;94861.47;5105188;28;20131;-76
2023/03/04 04:27:29;;;;;;;17.38;11.30;;;;;;;5.88;65.90;94878.50;5105534;28;20482;-75
2023/03/04 04:29:54;;;;;;;18.58;11.77;;;;;;;5.83;65.85;94874.28;5103966;28;20041;-76
2023/03/04 04:32:20;;;;;;;19.60;13.00;;;;;;;5.81;66.02;94876.63;5103536;28;20107;-75
2023/03/04 04:34:46;;;;;;;17.77;11.43;;;;;;;5.82;66.08;94870.00;5103991;28;20024;-76
2023/03/04 04:37:12;;;;;;;18.98;12.50;;;;;;;5.80;66.75;94872.38;5103584;28;20103;-76
2023/03/04 04:39:37;;;;;;;18.67;11.25;;;;;;;5.79;66.55;94877.06;5086755;28;20098;-75
2023/03/04 04:42:02;;;;;;;18.23;11.60;;;;;;;5.79;66.14;94876.25;5104686;28;20418;-75
2023/03/04 04:44:28;;;;;;;17.88;11.05;;;;;;;5.73;65.88;94875.94;5105092;28;20131;-75
2023/03/04 04:46:53;;;;;;;18.73;11.10;;;;;;;5.71;65.66;94881.03;5103619;28;20016;-74
2023/03/04 04:49:19;;;;;;;24.13;12.00;;;;;;;5.68;65.59;94876.41;5103793;28;20085;-76
2023/03/04 04:51:44;;;;;;;18.85;12.68;;;;;;;5.62;65.57;94872.56;5104541;28;20118;-75
2023/03/04 04:54:10;;;;;;;17.85;11.93;;;;;;;5.65;65.31;94874.47;5103187;28;20020;-76
2023/03/04 04:56:36;;;;;;;17.95;12.10;;;;;;;5.61;65.54;94876.44;5086679;28;20397;-76
2023/03/04 04:59:03;;;;;;;18.30;12.20;;;;;;;5.56;65.72;94877.69;5105462;28;20511;-75
2023/03/04 05:01:29;;;;;;;17.58;11.77;;;;;;;5.56;65.87;94885.06;5103534;28;20123;-75
2023/03/04 05:03:54;;;;;;;17.25;10.95;;;;;;;5.50;65.78;94884.75;5086196;28;20084;-76
2023/03/04 05:06:21;;;;;;;17.75;11.85;;;;;;;5.49;65.82;94896.84;5104108;28;20020;-76
2023/03/04 05:08:46;;;;;;;16.33;11.07;;;;;;;5.42;65.84;94904.31;5103288;28;20402;-75
2023/03/04 05:11:12;;;;;;;16.13;10.48;;;;;;;5.42;65.79;94905.09;5104595;28;20104;-75
2023/03/04 05:13:37;;;;;;;20.08;11.75;;;;;;;5.42;65.65;94902.34;5103420;28;20028;-74
2023/03/04 05:16:03;;;;;;;17.17;11.88;;;;;;;5.44;65.22;94908.19;5102886;28;20055;-76
2023/03/04 05:18:29;;;;;;;20.20;12.00;;;;;;;5.45;65.35;94909.75;5103250;28;20035;-77
2023/03/04 05:20:59;;;;;;;18.50;12.50;;;;;;;5.39;65.29;94914.09;5104508;28;20024;-77
2023/03/04 05:23:26;;;;;;;19.63;11.73;;;;;;;5.43;65.36;94908.59;5103628;28;20027;-76
2023/03/04 05:25:51;;;;;;;17.50;11.57;;;;;;;5.44;65.41;94908.19;5103260;28;20102;-75
2023/03/04 05:28:17;;;;;;;18.48;11.95;;;;;;;5.48;65.12;94908.91;5103627;28;20386;-75
2023/03/04 05:30:44;;;;;;;17.70;11.50;;;;;;;5.51;65.33;94902.69;5103363;28;20019;-75
2023/03/04 05:33:10;;;;;;;18.30;12.15;;;;;;;5.49;65.31;94915.91;5102804;28;20043;-75
2023/03/04 05:35:37;;;;;;;17.80;11.82;;;;;;;5.56;65.22;94915.06;5086036;28;20115;-75
2023/03/04 05:38:04;;;;;;;19.42;12.05;;;;;;;5.62;65.03;94916.22;5086077;28;20084;-75
2023/03/04 05:40:30;;;;;;;20.10;12.20;;;;;;;5.65;65.17;94922.78;5102894;28;20050;-75
2023/03/04 05:42:55;;;;;;;21.63;12.35;;;;;;;5.70;64.89;94919.63;5102659;28;20436;-75
2023/03/04 05:45:21;;;;;;;18.27;12.25;;;;;;;5.77;65.17;94923.03;5103561;28;20043;-75
2023/03/04 05:47:46;;;;;;;21.30;13.40;;;;;;;5.81;65.05;94923.00;5103196;28;20043;-74
2023/03/04 05:50:12;;;;;;;18.85;12.45;;;;;;;5.90;65.05;94912.38;5104240;28;20055;-76
2023/03/04 05:52:37;;;;;;;18.65;12.35;;;;;;;5.94;65.03;94926.78;5103139;28;20106;-75
2023/03/04 05:55:03;;;;;;;19.85;13.40;;;;;;;6.00;64.84;94921.66;5102804;28;20027;-76
2023/03/04 05:57:28;;;;;;;23.45;13.60;;;;;;;6.02;64.98;94924.75;5104720;28;20035;-77
2023/03/04 05:59:54;;;;;;;20.85;13.10;;;;;;;6.04;64.56;94920.44;5104172;28;20034;-75
2023/03/04 06:02:19;;;;;;;18.88;12.80;;;;;;;6.15;64.66;94933.19;5105185;28;20031;-75
2023/03/04 06:04:45;;;;;;;18.40;12.70;;;;;;;6.20;64.42;94933.53;5111558;28;20023;-75
2023/03/04 06:07:10;;;;;;;26.17;13.65;;;;;;;6.27;64.38;94941.63;5108682;28;20123;-75
2023/03/04 06:09:35;;;;;;;22.48;12.98;;;;;;;6.33;64.43;94944.66;5108078;28;20027;-77
2023/03/04 06:12:01;;;;;;;21.98;14.25;;;;;;;6.34;64.47;94938.78;5108041;28;20023;-76
2023/03/04 06:14:26;;;;;;;21.60;15.05;;;;;;;6.39;64.24;94937.56;5089817;28;20024;-76
2023/03/04 06:16:52;;;;;;;22.58;15.45;;;;;;;6.50;64.30;94945.63;5107864;28;20023;-76
2023/03/04 06:19:17;;;;;;;25.98;15.88;;;;;;;6.53;64.25;94936.59;5108345;28;20028;-74
2023/03/04 06:21:42;;;;;;;24.25;15.00;;;;;;;6.60;64.00;94945.50;5105845;28;20062;-75
2023/03/04 06:24:08;;;;;;;22.55;14.25;;;;;;;6.74;63.94;94946.47;5108100;28;20067;-75
2023/03/04 06:26:33;;;;;;;19.73;13.65;;;;;;;6.79;63.82;94946.03;5106150;28;20020;-76
2023/03/04 06:28:59;;;;;;;22.02;14.05;;;;;;;6.87;63.46;94942.00;5107596;28;20080;-75
2023/03/04 06:31:24;;;;;;;19.15;13.05;;;;;;;6.86;63.42;94943.19;5108088;27;20034;-75
2023/03/04 06:33:50;;;;;;;19.55;12.98;;;;;;;6.98;63.36;94959.00;5105112;28;20123;-74
2023/03/04 06:36:15;;;;;;;19.33;12.98;;;;;;;7.07;63.15;94961.22;5089418;28;20470;-76
2023/03/04 06:38:40;;;;;;;18.35;12.70;;;;;;;7.14;63.14;94950.97;5088869;28;20046;-77
2023/03/04 06:41:10;;;;;;;19.13;11.85;;;;;;;7.30;62.37;94950.31;5107453;28;20089;-76
2023/03/04 06:43:36;;;;;;;17.58;11.13;;;;;;;7.36;62.15;94958.84;5107668;28;20033;-75
2023/03/04 06:46:02;;;;;;;19.45;10.90;;;;;;;7.50;61.54;94957.81;5106047;28;20113;-77
2023/03/04 06:48:27;;;;;;;17.02;10.27;;;;;;;7.48;60.96;94957.47;5107439;28;20030;-76
2023/03/04 06:50:52;;;;;;;17.08;10.38;;;;;;;7.45;61.28;94959.06;5105670;28;20129;-77
2023/03/04 06:53:18;;;;;;;13.07;9.35;;;;;;;7.34;61.31;94956.53;5106043;28;20047;-76
2023/03/04 06:55:43;;;;;;;16.27;8.75;;;;;;;7.33;61.28;94963.16;5107021;28;20107;-76
2023/03/04 06:58:09;;;;;;;11.88;8.38;;;;;;;7.32;60.14;94961.63;5107156;28;20430;-77
2023/03/04 07:00:34;;;;;;;13.77;7.65;;;;;;;7.25;60.38;94969.94;5106991;28;20080;-76
2023/03/04 07:03:00;;;;;;;13.77;8.27;;;;;;;7.13;60.97;94965.81;5105836;28;20437;-77
2023/03/04 07:05:26;;;;;;;20.33;10.25;;;;;;;7.12;61.31;94966.25;5105613;28;20407;-77
2023/03/04 07:07:51;;;;;;;12.88;8.50;;;;;;;7.19;60.73;94968.84;5107024;28;20027;-76
2023/03/04 07:10:17;;;;;;;17.52;9.02;;;;;;;7.18;60.77;94967.31;5108067;28;20066;-75
2023/03/04 07:12:43;;;;;;;16.73;8.95;;;;;;;7.15;61.10;94970.88;5105493;28;20495;-75
2023/03/04 07:15:09;;;;;;;14.95;9.27;;;;;;;7.14;61.04;94966.59;5087674;28;20031;-76
2023/03/04 07:17:34;;;;;;;12.30;7.80;;;;;;;7.21;60.88;94973.91;5105042;28;20020;-75
2023/03/04 07:20:00;;;;;;;13.75;8.95;;;;;;;7.25;61.14;94964.47;5106687;28;20028;-76
2023/03/04 07:22:25;;;;;;;17.70;10.32;;;;;;;7.36;60.71;94964.31;5104889;28;20028;-75
2023/03/04 07:24:50;;;;;;;16.10;9.10;;;;;;;7.40;60.54;94974.00;5106596;28;20085;-76
2023/03/04 07:27:16;;;;;;;17.60;9.68;;;;;;;7.38;60.92;94970.88;5105033;28;20023;-76
2023/03/04 07:29:41;;;;;;;19.55;10.00;;;;;;;7.28;60.92;94971.06;5104929;28;20043;-76
2023/03/04 07:32:07;;;;;;;17.08;10.40;;;;;;;7.23;61.07;94969.59;5105233;28;20525;-76
2023/03/04 07:34:33;;;;;;;15.60;9.55;;;;;;;7.37;60.81;94974.06;5104294;28;20028;-75
2023/03/04 07:36:58;;;;;;;15.68;8.93;;;;;;;7.56;60.68;94964.34;5087940;28;20027;-76
2023/03/04 07:39:24;;;;;;;15.38;9.30;;;;;;;7.69;59.96;94971.56;5106172;28;20103;-75
2023/03/04 07:41:49;;;;;;;15.02;10.15;;;;;;;7.69;60.00;94968.06;5106286;28;20421;-75
2023/03/04 07:44:15;;;;;;;18.40;10.35;;;;;;;7.68;60.00;94967.28;5104301;28;20035;-75
2023/03/04 07:46:40;;;;;;;15.70;9.90;;;;;;;7.74;60.07;94964.81;5104984;28;20031;-76
2023/03/04 07:49:06;;;;;;;18.13;10.27;;;;;;;7.80;60.24;94956.91;5104702;28;20539;-75
2023/03/04 07:51:31;;;;;;;18.95;11.75;;;;;;;7.92;59.73;94965.31;5105822;28;20027;-76
2023/03/04 07:53:59;;;;;;;16.27;10.65;;;;;;;8.00;59.11;94965.94;5087877;28;20015;-75
2023/03/04 07:56:27;;;;;;;16.40;9.77;;;;;;;8.16;58.52;94959.78;5104227;28;20031;-77
2023/03/04 07:58:53;;;;;;;15.70;10.07;;;;;;;8.28;58.13;94972.06;5104892;28;20024;-75
2023/03/04 08:01:33;;;;;;;14.63;9.25;;;;;;;8.35;58.25;94969.97;5105300;28;20030;-76
2023/03/04 08:03:59;;;;;;;21.20;10.65;;;;;;;8.35;56.77;94972.69;5104534;28;20062;-76
2023/03/04 08:06:25;;;;;;;13.75;9.27;;;;;;;8.30;56.80;94964.97;5087558;28;20055;-76
2023/03/04 08:08:56;;;;;;;15.50;9.20;;;;;;;8.11;57.33;94957.53;5104185;28;20564;-75
2023/03/04 08:11:22;;;;;;;16.17;9.95;;;;;;;8.04;58.36;94955.69;5087575;28;20016;-77
2023/03/04 08:13:47;;;;;;;16.83;10.00;;;;;;;7.98;58.44;94958.16;5087231;28;20076;-76
2023/03/04 08:16:15;;;;;;;17.20;10.77;;;;;;;7.95;58.93;94958.97;5105623;28;20035;-77
2023/03/04 08:18:47;;;;;;;15.60;10.65;;;;;;;7.95;59.02;94952.72;5104062;28;20093;-75
2023/03/04 08:21:14;;;;;;;20.52;10.77;;;;;;;8.00;58.82;94957.72;5104373;28;20031;-74
2023/03/04 08:23:43;;;;;;;15.68;9.77;;;;;;;8.10;58.24;94959.50;5104050;28;20543;-75
2023/03/04 08:26:12;;;;;;;19.13;10.45;;;;;;;8.16;58.39;94957.81;5103006;28;20035;-75
2023/03/04 08:28:38;;;;;;;16.15;10.43;;;;;;;8.19;57.79;94958.94;5104280;28;20023;-74
2023/03/04 08:31:04;;;;;;;14.90;10.38;;;;;;;8.27;58.24;94963.09;5086605;28;20035;-74
2023/03/04 08:33:30;;;;;;;16.25;10.38;;;;;;;8.32;57.84;94962.59;5105477;28;20027;-74
2023/03/04 08:35:56;;;;;;;16.83;10.43;;;;;;;8.33;57.88;94955.16;5103215;28;20377;-75
2023/03/04 08:38:21;;;;;;;17.60;10.00;;;;;;;8.40;57.76;94949.56;5105269;28;20016;-76
2023/03/04 08:40:52;;;;;;;16.95;10.15;;;;;;;8.49;57.51;94952.50;5103465;28;20119;-75
2023/03/04 08:43:17;;;;;;;18.20;10.48;;;;;;;8.58;57.05;94957.41;5103277;28;20454;-75
2023/03/04 08:45:43;;;;;;;17.15;11.00;;;;;;;8.60;57.16;94947.59;5104145;28;20148;-75
2023/03/04 08:48:08;;;;;;;20.60;12.27;;;;;;;8.59;57.22;94942.50;5103169;28;20031;-75
2023/03/04 08:50:34;;;;;;;17.98;11.25;;;;;;;8.65;57.50;94951.78;5103709;28;20031;-75
2023/03/04 08:53:00;;;;;;;16.98;11.00;;;;;;;8.72;56.91;94948.91;5104797;28;20035;-74
2023/03/04 08:55:25;;;;;;;20.48;10.85;;;;;;;8.78;56.64;94945.22;5105319;28;20019;-75
2023/03/04 08:57:50;;;;;;;20.40;10.13;;;;;;;8.92;56.10;94951.59;5104783;28;20583;-76
2023/03/04 09:00:16;;;;;;;15.40;10.77;;;;;;;8.95;56.07;94953.50;5104995;28;20023;-76
2023/03/04 09:02:42;;;;;;;17.30;10.05;;;;;;;9.03;55.59;94941.94;5104829;28;20446;-76
2023/03/04 09:05:07;;;;;;;17.58;10.45;;;;;;;9.07;55.10;94947.34;5103296;28;20051;-76
2023/03/04 09:07:33;;;;;;;18.02;10.20;;;;;;;9.04;55.55;94948.94;5105033;28;20028;-75
2023/03/04 09:09:59;;;;;;;17.85;10.13;;;;;;;9.07;55.67;94938.34;5104415;28;20092;-76
2023/03/04 09:12:24;;;;;;;17.23;10.10;;;;;;;9.17;55.06;94938.06;5103280;28;20035;-76
2023/03/04 09:14:50;;;;;;;16.98;9.25;;;;;;;9.21;54.62;94935.25;5103198;28;20039;-76
2023/03/04 09:17:15;;;;;;;20.25;10.55;;;;;;;9.29;54.40;94939.38;5103406;28;20080;-76
2023/03/04 09:19:40;;;;;;;13.70;9.70;;;;;;;9.26;54.22;94938.25;5103544;28;20028;-75
2023/03/04 09:22:06;;;;;;;16.52;10.73;;;;;;;9.35;54.44;94932.19;5105320;28;20028;-76
2023/03/04 09:24:31;;;;;;;16.15;10.63;;;;;;;9.48;54.01;94933.03;5104611;28;20032;-76
2023/03/04 09:26:57;;;;;;;16.27;10.98;;;;;;;9.60;53.69;94933.53;5102779;28;20034;-76
2023/03/04 09:29:22;;;;;;;16.33;9.43;;;;;;;9.61;53.28;94921.34;5086215;28;20020;-75
2023/03/04 09:31:47;;;;;;;14.85;8.73;;;;;;;9.56;53.07;94925.38;5104454;28;20511;-77
2023/03/04 09:34:13;;;;;;;15.60;9.30;;;;;;;9.70;53.34;94924.28;5104576;28;20558;-77
2023/03/04 09:36:39;;;;;;;15.88;9.10;;;;;;;9.77;53.12;94922.09;5086064;28;20031;-76
2023/03/04 09:39:05;;;;;;;17.13;10.25;;;;;;;9.87;53.07;94922.28;5106438;28;20027;-76
2023/03/04 09:41:43;;;;;;;15.48;9.98;;;;;;;9.97;51.86;94924.72;5106599;28;20075;-76
2023/03/04 09:44:31;;;;;;;16.77;9.80;;;;;;;9.86;52.40;94924.22;5106348;28;20027;-75
2023/03/04 09:46:59;;;;;;;15.10;8.70;;;;;;;9.83;52.95;94914.13;5107279;28;20020;-76
2023/03/04 09:49:25;;;;;;;14.75;9.75;;;;;;;9.90;53.16;94918.66;5107794;28;20107;-76
2023/03/04 09:51:59;;;;;;;16.70;10.63;;;;;;;9.94;52.82;94917.34;5107043;28;20510;-77
2023/03/04 09:54:50;;;;;;;15.57;9.65;;;;;;;9.99;52.61;94916.06;5107752;28;20137;-75
2023/03/04 09:57:50;;;;;;;15.55;9.75;;;;;;;10.13;51.78;94906.66;5106441;28;20028;-77
2023/03/04 10:00:21;;;;;;;15.40;8.40;;;;;;;10.21;51.95;94910.75;5069908;28;20092;-76
2023/03/04 10:03:11;;;;;;;13.07;8.93;;;;;;;10.30;51.59;94903.44;5106024;28;20020;-77
2023/03/04 10:05:53;;;;;;;14.23;9.25;;;;;;;10.50;51.33;94905.25;5107573;28;20486;-74
2023/03/04 10:08:35;;;;;;;17.15;9.32;;;;;;;10.42;50.91;94901.16;5108108;28;20636;-74
2023/03/04 10:11:03;;;;;;;13.77;8.23;;;;;;;10.37;51.29;94897.72;5106286;28;20064;-77
2023/03/04 10:13:36;;;;;;;14.45;9.20;;;;;;;10.42;51.22;94890.94;5106511;28;20024;-76
2023/03/04 10:16:04;;;;;;;12.88;7.90;;;;;;;10.57;50.26;94886.56;5107677;28;20036;-75
2023/03/04 10:18:36;;;;;;;16.67;9.13;;;;;;;10.63;49.92;94886.78;5106113;28;20112;-77
2023/03/04 10:21:26;;;;;;;12.00;8.48;;;;;;;10.71;50.15;94882.63;5106574;28;20020;-75
2023/03/04 10:23:53;;;;;;;16.17;9.85;;;;;;;10.57;50.26;94877.56;5105554;28;20168;-75
2023/03/04 10:26:20;;;;;;;16.48;8.85;;;;;;;10.40;50.74;94874.13;5107266;28;20020;-76
2023/03/04 10:28:46;;;;;;;16.88;10.85;;;;;;;10.27;50.85;94879.59;5105511;28;20023;-76
2023/03/04 10:31:40;;;;;;;18.83;10.15;;;;;;;10.26;51.65;94875.28;5106191;28;20418;-74
2023/03/04 10:34:06;;;;;;;16.05;8.63;;;;;;;10.28;51.59;94861.91;5106192;28;20036;-75
2023/03/04 10:36:43;;;;;;;16.35;9.93;;;;;;;10.36;51.43;94863.22;5105568;28;20529;-75
2023/03/04 10:39:35;;;;;;;16.92;10.50;;;;;;;10.37;51.62;94861.25;5089074;28;20023;-74
2023/03/04 10:42:06;;;;;;;20.73;11.07;;;;;;;10.40;51.98;94857.63;5105591;28;20595;-79
2023/03/04 10:44:33;;;;;;;17.73;9.63;;;;;;;10.39;51.62;94858.84;5107354;28;20114;-76
2023/03/04 10:46:59;;;;;;;21.30;9.80;;;;;;;10.33;52.10;94849.59;5106098;28;20027;-75
2023/03/04 10:49:27;;;;;;;14.88;9.43;;;;;;;10.30;52.07;94842.22;5104392;28;20118;-80
2023/03/04 10:52:01;;;;;;;19.70;10.52;;;;;;;10.43;51.61;94836.75;5088765;28;20038;-78
2023/03/04 10:54:35;;;;;;;22.20;11.02;;;;;;;10.53;51.48;94838.41;5088485;28;20035;-79
2023/03/04 10:57:05;;;;;;;19.02;11.23;;;;;;;10.52;51.86;94842.38;5107078;28;20103;-80
2023/03/04 10:59:43;;;;;;;17.17;10.50;;;;;;;10.59;51.33;94833.91;5088487;28;20070;-80
2023/03/04 11:02:33;;;;;;;21.52;11.82;;;;;;;10.55;51.62;94830.47;5105225;28;20015;-78
2023/03/04 11:05:14;;;;;;;17.17;11.65;;;;;;;10.64;51.23;94828.63;5105699;28;20062;-78
2023/03/04 11:07:42;;;;;;;17.77;10.60;;;;;;;10.64;51.28;94814.09;5105084;28;20102;-80
2023/03/04 11:10:20;;;;;;;19.05;11.32;;;;;;;10.63;51.37;94812.56;5105156;28;20027;-79
2023/03/04 11:13:08;;;;;;;19.65;11.60;;;;;;;10.70;51.25;94806.09;5106897;28;20034;-79
2023/03/04 11:15:49;;;;;;;22.80;12.02;;;;;;;10.69;51.27;94801.78;5106529;27;20482;-79
2023/03/04 11:18:15;;;;;;;19.70;11.02;;;;;;;10.68;51.16;94789.25;5105781;28;20073;-79
2023/03/04 11:20:42;;;;;;;16.85;10.70;;;;;;;10.42;51.17;94799.47;5087737;28;20434;-84
2023/03/04 11:23:25;;;;;;;18.45;11.50;;;;;;;10.35;51.92;94787.50;5104955;28;20066;-78
2023/03/04 11:26:14;;;;;;;20.30;11.23;;;;;;;10.32;52.01;94788.38;5105242;28;20046;-78
2023/03/04 11:29:01;;;;;;;18.50;11.48;;;;;;;10.29;52.07;94783.75;5104846;28;20411;-78